createdAt,value
2022-08-24T00:01:09.046Z,19.50
2022-08-24T00:03:37.434Z,19.49
2022-08-24T00:06:05.607Z,18.71
2022-08-24T00:08:32.475Z,18.85
2022-08-24T00:11:02.202Z,18.72
2022-08-24T00:13:29.459Z,18.59
2022-08-24T00:16:00.639Z,19.36
2022-08-24T00:18:27.993Z,19.34
2022-08-24T00:20:54.841Z,18.58
2022-08-24T00:23:21.604Z,16.74
2022-08-24T00:25:48.038Z,18.46
2022-08-24T00:28:14.542Z,18.56
2022-08-24T00:30:41.017Z,19.26
2022-08-24T00:33:08.222Z,19.26
2022-08-24T00:35:34.736Z,18.54
2022-08-24T00:38:01.763Z,18.50
2022-08-24T00:40:33.858Z,17.84
2022-08-24T00:43:04.733Z,19.20
2022-08-24T00:45:40.949Z,18.69
2022-08-24T00:48:15.333Z,19.17
2022-08-24T00:50:48.162Z,18.29
2022-08-24T00:53:43.471Z,16.23
2022-08-24T00:56:16.946Z,18.26
2022-08-24T00:58:57.048Z,18.48
2022-08-24T01:01:24.935Z,18.42
2022-08-24T01:03:56.598Z,18.51
2022-08-24T01:06:24.114Z,17.79
2022-08-24T01:08:56.369Z,18.49
2022-08-24T01:11:27.665Z,18.27
2022-08-24T01:14:03.192Z,18.56
2022-08-24T01:16:48.925Z,18.14
2022-08-24T01:19:36.515Z,18.45
2022-08-24T01:22:09.427Z,18.36
2022-08-24T01:24:36.404Z,16.45
2022-08-24T01:27:03.532Z,18.06
2022-08-24T01:29:31.907Z,16.85
2022-08-24T01:32:01.699Z,15.91
2022-08-24T01:34:28.163Z,15.62
2022-08-24T01:36:56.276Z,18.14
2022-08-24T01:39:33.842Z,18.12
2022-08-24T01:42:01.830Z,18.14
2022-08-24T01:44:33.971Z,17.83
2022-08-24T01:47:01.903Z,16.26
2022-08-24T01:49:35.970Z,17.94
2022-08-24T01:52:06.423Z,17.33
2022-08-24T01:54:33.858Z,17.28
2022-08-24T01:57:00.758Z,17.92
2022-08-24T01:59:28.068Z,17.72
2022-08-24T02:02:06.365Z,18.18
2022-08-24T02:04:34.646Z,18.15
2022-08-24T02:07:01.694Z,18.11
2022-08-24T02:09:32.903Z,17.78
2022-08-24T02:12:00.041Z,17.37
2022-08-24T02:14:26.859Z,17.19
2022-08-24T02:16:58.796Z,17.08
2022-08-24T02:19:27.229Z,15.97
2022-08-24T02:21:54.118Z,18.08
2022-08-24T02:24:21.013Z,16.51
2022-08-24T02:26:47.816Z,17.77
2022-08-24T02:29:14.246Z,14.47
2022-08-24T02:31:41.000Z,15.19
2022-08-24T02:34:07.642Z,16.91
2022-08-24T02:36:34.051Z,17.73
2022-08-24T02:39:00.582Z,17.95
2022-08-24T02:41:27.205Z,17.18
2022-08-24T02:43:55.151Z,17.84
2022-08-24T02:46:24.135Z,17.82
2022-08-24T02:48:57.980Z,17.44
2022-08-24T02:51:38.882Z,17.38
2022-08-24T02:54:13.602Z,17.69
2022-08-24T02:56:40.202Z,17.21
2022-08-24T02:59:06.751Z,17.64
2022-08-24T03:01:33.437Z,16.65
2022-08-24T03:04:00.020Z,16.89
2022-08-24T03:06:26.473Z,16.15
2022-08-24T03:08:54.656Z,16.91
2022-08-24T03:11:27.407Z,14.11
2022-08-24T03:13:56.118Z,15.47
2022-08-24T03:16:22.578Z,17.30
2022-08-24T03:18:48.968Z,16.90
2022-08-24T03:21:16.275Z,17.23
2022-08-24T03:23:42.824Z,17.21
2022-08-24T03:26:09.753Z,17.05
2022-08-24T03:28:36.260Z,14.51
2022-08-24T03:31:03.207Z,16.74
2022-08-24T03:33:30.168Z,16.32
2022-08-24T03:35:59.190Z,14.96
2022-08-24T03:38:25.617Z,16.23
2022-08-24T03:40:52.123Z,15.89
2022-08-24T03:43:36.871Z,16.91
2022-08-24T03:46:07.612Z,16.63
2022-08-24T03:48:34.976Z,16.37
2022-08-24T03:51:01.913Z,15.36
2022-08-24T03:53:28.508Z,16.51
2022-08-24T03:55:54.971Z,16.54
2022-08-24T03:58:21.515Z,16.40
2022-08-24T04:00:48.043Z,15.33
2022-08-24T04:03:14.524Z,14.60
2022-08-24T04:05:42.295Z,16.95
2022-08-24T04:08:09.444Z,16.00
2022-08-24T04:10:36.406Z,16.89
2022-08-24T04:13:02.932Z,16.85
2022-08-24T04:15:32.149Z,16.83
2022-08-24T04:18:01.607Z,15.75
2022-08-24T04:20:28.722Z,16.28
2022-08-24T04:22:55.233Z,14.16
2022-08-24T04:25:25.032Z,15.39
2022-08-24T04:27:52.018Z,14.92
2022-08-24T04:30:19.008Z,16.37
2022-08-24T04:32:45.515Z,16.06
2022-08-24T04:35:12.620Z,15.55
2022-08-24T04:37:39.052Z,16.78
2022-08-24T04:40:07.512Z,16.29
2022-08-24T04:42:34.090Z,14.45
2022-08-24T04:45:00.887Z,14.91
2022-08-24T04:47:27.301Z,16.83
2022-08-24T04:49:56.871Z,14.84
2022-08-24T04:52:24.128Z,13.85
2022-08-24T04:54:50.643Z,16.33
2022-08-24T04:57:18.511Z,16.91
2022-08-24T04:59:45.420Z,17.02
2022-08-24T05:02:11.972Z,15.73
2022-08-24T05:04:38.634Z,16.29
2022-08-24T05:07:06.320Z,17.26
2022-08-24T05:09:32.958Z,17.19
2022-08-24T05:12:00.698Z,16.57
2022-08-24T05:14:29.049Z,15.98
2022-08-24T05:16:55.981Z,17.46
2022-08-24T05:19:23.907Z,16.72
2022-08-24T05:21:50.928Z,16.79
2022-08-24T05:24:19.458Z,17.86
2022-08-24T05:26:46.212Z,17.71
2022-08-24T05:29:12.815Z,16.23
2022-08-24T05:31:44.489Z,18.26
2022-08-24T05:34:13.778Z,18.22
2022-08-24T05:36:41.128Z,17.91
2022-08-24T05:39:11.744Z,18.96
2022-08-24T05:41:44.307Z,20.30
2022-08-24T05:44:12.994Z,20.18
2022-08-24T05:46:39.565Z,19.17
2022-08-24T05:49:06.316Z,21.63
2022-08-24T05:51:33.764Z,21.66
2022-08-24T05:54:00.898Z,21.29
2022-08-24T05:56:31.732Z,20.89
2022-08-24T05:58:58.852Z,20.95
2022-08-24T06:01:28.575Z,20.84
2022-08-24T06:03:56.513Z,20.16
2022-08-24T06:06:24.365Z,19.91
2022-08-24T06:08:52.393Z,19.11
2022-08-24T06:11:29.862Z,20.24
2022-08-24T06:14:01.385Z,19.85
2022-08-24T06:16:29.266Z,20.55
2022-08-24T06:18:56.364Z,20.40
2022-08-24T06:21:28.156Z,19.97
2022-08-24T06:23:56.148Z,20.71
2022-08-24T06:26:41.177Z,20.79
2022-08-24T06:29:08.649Z,20.35
2022-08-24T06:31:46.804Z,21.01
2022-08-24T06:34:15.329Z,20.90
2022-08-24T06:36:42.006Z,19.81
2022-08-24T06:39:10.224Z,21.60
2022-08-24T06:41:40.388Z,21.55
2022-08-24T06:44:08.503Z,21.82
2022-08-24T06:46:36.505Z,21.63
2022-08-24T06:49:04.051Z,21.66
2022-08-24T06:51:32.365Z,22.14
2022-08-24T06:54:02.016Z,21.96
2022-08-24T06:56:28.617Z,21.73
2022-08-24T06:58:55.398Z,22.40
2022-08-24T07:01:25.406Z,22.37
2022-08-24T07:03:55.383Z,22.62
2022-08-24T07:06:23.484Z,22.68
2022-08-24T07:08:50.815Z,22.83
2022-08-24T07:11:19.122Z,22.92
2022-08-24T07:13:47.613Z,22.57
2022-08-24T07:16:15.618Z,22.88
2022-08-24T07:18:44.996Z,22.87
2022-08-24T07:21:14.112Z,22.96
2022-08-24T07:23:41.870Z,20.95
2022-08-24T07:26:21.020Z,23.40
2022-08-24T07:28:53.668Z,23.46
2022-08-24T07:31:21.207Z,23.40
2022-08-24T07:33:47.846Z,23.07
2022-08-24T07:36:21.887Z,23.65
2022-08-24T07:38:52.277Z,23.92
2022-08-24T07:41:40.546Z,23.87
2022-08-24T07:44:06.781Z,23.64
2022-08-24T07:46:33.632Z,23.84
2022-08-24T07:49:11.642Z,22.47
2022-08-24T07:51:40.841Z,22.68
2022-08-24T07:54:14.199Z,24.30
2022-08-24T07:56:42.191Z,24.80
2022-08-24T07:59:12.999Z,24.70
2022-08-24T08:01:40.692Z,24.64
2022-08-24T08:04:08.043Z,24.75
2022-08-24T08:06:34.593Z,25.11
2022-08-24T08:09:02.633Z,24.83
2022-08-24T08:11:29.058Z,25.11
2022-08-24T08:13:55.447Z,25.24
2022-08-24T08:16:22.038Z,25.12
2022-08-24T08:18:52.381Z,25.44
2022-08-24T08:21:45.902Z,25.39
2022-08-24T08:24:15.115Z,25.40
2022-08-24T08:26:43.227Z,25.94
2022-08-24T08:29:12.936Z,26.01
2022-08-24T08:31:41.118Z,26.16
2022-08-24T08:34:09.705Z,25.97
2022-08-24T08:36:39.431Z,26.25
2022-08-24T08:39:09.198Z,26.77
2022-08-24T08:41:59.298Z,26.84
2022-08-24T08:44:38.098Z,26.14
2022-08-24T08:47:20.746Z,26.16
2022-08-24T08:50:06.031Z,26.80
2022-08-24T08:52:46.377Z,26.65
2022-08-24T08:55:38.248Z,27.04
2022-08-24T08:58:18.503Z,27.39
2022-08-24T09:01:01.650Z,27.70
2022-08-24T09:03:37.469Z,27.92
2022-08-24T09:06:32.805Z,27.15
2022-08-24T09:09:02.304Z,27.66
2022-08-24T09:11:48.222Z,27.58
2022-08-24T09:14:39.184Z,27.63
2022-08-24T09:17:20.158Z,27.74
2022-08-24T09:20:07.295Z,27.54
2022-08-24T09:22:40.975Z,27.52
2022-08-24T09:25:26.941Z,27.43
2022-08-24T09:28:14.838Z,27.69
2022-08-24T09:31:10.696Z,26.88
2022-08-24T09:33:45.586Z,27.62
2022-08-24T09:36:20.237Z,26.38
2022-08-24T09:39:14.251Z,27.61
2022-08-24T09:41:59.811Z,28.16
2022-08-24T09:45:01.985Z,28.45
2022-08-24T09:47:43.556Z,28.37
2022-08-24T09:50:46.845Z,28.47
2022-08-24T09:53:34.327Z,28.87
2022-08-24T09:56:19.421Z,28.61
2022-08-24T09:59:24.926Z,28.79
2022-08-24T10:02:28.509Z,28.67
2022-08-24T10:05:22.273Z,28.93
2022-08-24T10:08:03.483Z,28.76
2022-08-24T10:10:51.763Z,28.87
2022-08-24T10:13:36.773Z,29.10
2022-08-24T10:16:23.320Z,28.98
2022-08-24T10:18:50.283Z,29.41
2022-08-24T10:21:46.552Z,29.14
2022-08-24T10:24:30.506Z,29.65
2022-08-24T10:27:10.915Z,29.54
2022-08-24T10:29:46.397Z,30.20
2022-08-24T10:32:43.776Z,30.19
2022-08-24T10:35:15.840Z,28.60
2022-08-24T10:38:30.504Z,29.99
2022-08-24T10:41:02.926Z,30.00
2022-08-24T10:43:59.365Z,30.15
2022-08-24T10:46:26.046Z,30.33
2022-08-24T10:49:32.251Z,30.35
2022-08-24T10:52:23.167Z,30.28
2022-08-24T10:54:49.946Z,30.56
2022-08-24T10:57:43.654Z,30.49
2022-08-24T11:00:18.185Z,30.78
2022-08-24T11:03:05.159Z,29.96
2022-08-24T11:05:39.626Z,31.10
2022-08-24T11:08:07.656Z,31.24
2022-08-24T11:10:39.784Z,31.34
2022-08-24T11:13:27.217Z,31.84
2022-08-24T11:16:00.575Z,31.59
2022-08-24T11:18:46.468Z,31.70
2022-08-24T11:21:42.199Z,32.04
2022-08-24T11:24:25.662Z,31.85
2022-08-24T11:27:15.375Z,32.32
2022-08-24T11:29:54.663Z,32.33
2022-08-24T11:32:41.115Z,32.35
2022-08-24T11:35:19.804Z,32.38
2022-08-24T11:37:47.585Z,32.06
2022-08-24T11:40:16.380Z,31.96
2022-08-24T11:43:05.156Z,31.22
2022-08-24T11:45:43.290Z,31.40
2022-08-24T11:48:32.988Z,31.18
2022-08-24T11:51:09.045Z,31.65
2022-08-24T11:54:03.730Z,30.93
2022-08-24T11:56:45.704Z,31.82
2022-08-24T11:59:30.411Z,31.06
2022-08-24T12:02:04.013Z,32.16
2022-08-24T12:04:46.432Z,32.21
2022-08-24T12:07:21.975Z,32.59
2022-08-24T12:10:03.562Z,32.68
2022-08-24T12:12:54.468Z,32.27
2022-08-24T12:15:37.045Z,32.33
2022-08-24T12:18:16.451Z,31.60
2022-08-24T12:20:48.496Z,32.67
2022-08-24T12:23:26.443Z,32.77
2022-08-24T12:26:03.549Z,32.54
2022-08-24T12:28:41.574Z,30.39
2022-08-24T12:31:14.129Z,29.19
2022-08-24T12:33:47.382Z,32.81
2022-08-24T12:36:22.014Z,31.88
2022-08-24T12:39:00.081Z,32.75
2022-08-24T12:41:39.792Z,32.57
2022-08-24T12:44:12.760Z,31.76
2022-08-24T12:46:40.360Z,32.38
2022-08-24T12:49:36.331Z,32.78
2022-08-24T12:52:10.653Z,32.28
2022-08-24T12:54:53.333Z,32.35
2022-08-24T12:57:53.112Z,32.16
2022-08-24T13:00:34.825Z,32.01
2022-08-24T13:03:06.070Z,32.24
2022-08-24T13:06:00.659Z,32.03
2022-08-24T13:08:33.229Z,32.23
2022-08-24T13:11:06.109Z,31.91
2022-08-24T13:13:47.900Z,32.13
2022-08-24T13:16:49.962Z,32.42
2022-08-24T13:19:22.487Z,32.58
2022-08-24T13:22:20.016Z,31.95
2022-08-24T13:25:22.156Z,32.81
2022-08-24T13:28:02.380Z,32.27
2022-08-24T13:30:34.788Z,33.32
2022-08-24T13:33:05.833Z,33.55
2022-08-24T13:35:55.280Z,33.90
2022-08-24T13:38:42.319Z,33.24
2022-08-24T13:41:09.194Z,33.77
2022-08-24T13:43:45.659Z,32.90
2022-08-24T13:46:44.540Z,33.14
2022-08-24T13:49:46.177Z,33.54
2022-08-24T13:52:45.000Z,33.35
2022-08-24T13:55:20.354Z,33.59
2022-08-24T13:58:10.889Z,33.90
2022-08-24T14:01:05.447Z,33.55
2022-08-24T14:03:53.479Z,32.37
2022-08-24T14:06:40.375Z,32.79
2022-08-24T14:09:29.956Z,32.44
2022-08-24T14:12:14.725Z,32.40
2022-08-24T14:15:19.775Z,31.45
2022-08-24T14:18:07.698Z,32.36
2022-08-24T14:21:17.837Z,32.86
2022-08-24T14:24:17.654Z,32.65
2022-08-24T14:26:44.003Z,33.14
2022-08-24T14:29:19.331Z,33.22
2022-08-24T14:31:58.515Z,33.22
2022-08-24T14:34:26.570Z,33.22
2022-08-24T14:37:01.656Z,32.66
2022-08-24T14:39:39.963Z,33.14
2022-08-24T14:42:16.866Z,33.25
2022-08-24T14:44:43.221Z,33.33
2022-08-24T14:47:46.992Z,33.21
2022-08-24T14:50:22.454Z,32.52
2022-08-24T14:53:23.191Z,32.83
2022-08-24T14:56:10.015Z,32.89
2022-08-24T14:58:58.243Z,33.05
2022-08-24T15:01:40.339Z,32.84
2022-08-24T15:04:16.718Z,33.24
2022-08-24T15:07:20.926Z,32.71
2022-08-24T15:09:49.493Z,33.27
2022-08-24T15:12:50.149Z,33.77
2022-08-24T15:15:35.221Z,33.53
2022-08-24T15:18:01.853Z,33.53
2022-08-24T15:20:36.098Z,33.77
2022-08-24T15:23:09.662Z,33.36
2022-08-24T15:25:44.759Z,33.10
2022-08-24T15:28:24.948Z,33.43
2022-08-24T15:31:00.625Z,32.76
2022-08-24T15:33:30.057Z,33.16
2022-08-24T15:36:09.356Z,32.58
2022-08-24T15:38:38.381Z,32.77
2022-08-24T15:41:07.498Z,33.17
2022-08-24T15:43:39.131Z,33.28
2022-08-24T15:46:08.259Z,33.10
2022-08-24T15:48:35.352Z,32.54
2022-08-24T15:51:02.385Z,32.53
2022-08-24T15:53:39.110Z,32.79
2022-08-24T15:56:20.892Z,32.72
2022-08-24T15:58:48.809Z,29.26
2022-08-24T16:01:34.178Z,32.68
2022-08-24T16:04:08.866Z,32.67
2022-08-24T16:06:41.183Z,32.10
2022-08-24T16:09:22.532Z,32.60
2022-08-24T16:12:10.039Z,32.06
2022-08-24T16:14:46.894Z,32.37
2022-08-24T16:17:27.387Z,31.73
2022-08-24T16:19:58.491Z,32.23
2022-08-24T16:22:39.155Z,32.47
2022-08-24T16:25:17.624Z,32.31
2022-08-24T16:28:12.283Z,32.16
2022-08-24T16:30:56.337Z,32.12
2022-08-24T16:33:34.847Z,32.09
2022-08-24T16:36:20.365Z,31.82
2022-08-24T16:38:51.287Z,32.13
2022-08-24T16:41:21.749Z,32.05
2022-08-24T16:43:48.697Z,31.63
2022-08-24T16:46:23.503Z,32.01
2022-08-24T16:48:50.319Z,32.00
2022-08-24T16:51:16.952Z,31.79
2022-08-24T16:53:43.725Z,31.12
2022-08-24T16:56:12.557Z,30.81
2022-08-24T16:58:42.357Z,31.82
2022-08-24T17:01:11.149Z,30.86
2022-08-24T17:03:37.700Z,31.68
2022-08-24T17:06:05.065Z,31.36
2022-08-24T17:08:31.728Z,31.35
2022-08-24T17:10:58.115Z,31.06
2022-08-24T17:13:49.306Z,31.25
2022-08-24T17:16:12.496Z,31.20
2022-08-24T17:18:39.794Z,30.95
2022-08-24T17:21:06.314Z,30.81
2022-08-24T17:23:33.686Z,31.30
2022-08-24T17:26:01.920Z,30.23
2022-08-24T17:28:29.148Z,31.25
2022-08-24T17:30:55.539Z,30.96
2022-08-24T17:33:21.913Z,30.71
2022-08-24T17:35:54.253Z,31.12
2022-08-24T17:38:21.266Z,31.04
2022-08-24T17:40:47.657Z,30.96
2022-08-24T17:43:16.046Z,30.44
2022-08-24T17:45:45.085Z,30.55
2022-08-24T17:48:16.329Z,30.87
2022-08-24T17:50:42.730Z,30.37
2022-08-24T17:53:09.438Z,30.75
2022-08-24T17:55:35.930Z,29.84
2022-08-24T17:58:02.975Z,30.25
2022-08-24T18:00:29.421Z,30.20
2022-08-24T18:02:55.910Z,29.94
2022-08-24T18:05:22.330Z,29.93
2022-08-24T18:07:55.308Z,30.07
2022-08-24T18:10:32.068Z,29.76
2022-08-24T18:13:03.481Z,29.68
2022-08-24T18:15:35.486Z,29.78
2022-08-24T18:18:06.470Z,29.63
2022-08-24T18:20:36.260Z,29.51
2022-08-24T18:23:03.327Z,28.93
2022-08-24T18:25:37.684Z,28.91
2022-08-24T18:28:04.227Z,29.30
2022-08-24T18:30:31.949Z,29.11
2022-08-24T18:33:04.741Z,28.52
2022-08-24T18:35:32.502Z,28.09
2022-08-24T18:37:59.162Z,28.53
2022-08-24T18:40:29.178Z,28.75
2022-08-24T18:43:01.685Z,28.27
2022-08-24T18:45:31.576Z,26.12
2022-08-24T18:47:59.792Z,27.73
2022-08-24T18:50:28.990Z,27.90
2022-08-24T18:52:56.371Z,27.74
2022-08-24T18:55:24.090Z,27.99
2022-08-24T18:57:51.462Z,28.03
2022-08-24T19:00:18.291Z,27.86
2022-08-24T19:02:45.002Z,27.20
2022-08-24T19:05:17.458Z,27.88
2022-08-24T19:07:47.007Z,27.74
2022-08-24T19:10:17.307Z,27.99
2022-08-24T19:12:47.864Z,27.60
2022-08-24T19:15:35.894Z,27.88
2022-08-24T19:18:05.384Z,27.64
2022-08-24T19:20:32.822Z,27.11
2022-08-24T19:23:08.416Z,27.46
2022-08-24T19:25:36.050Z,26.63
2022-08-24T19:28:03.156Z,27.19
2022-08-24T19:30:29.652Z,26.50
2022-08-24T19:32:57.634Z,26.95
2022-08-24T19:35:24.166Z,27.33
2022-08-24T19:37:50.769Z,26.97
2022-08-24T19:40:18.588Z,27.18
2022-08-24T19:42:49.630Z,26.78
2022-08-24T19:45:37.151Z,27.04
2022-08-24T19:48:04.585Z,26.65
2022-08-24T19:50:35.528Z,26.11
2022-08-24T19:53:04.430Z,26.16
2022-08-24T19:55:31.592Z,26.34
2022-08-24T19:58:09.502Z,26.64
2022-08-24T20:00:58.024Z,26.59
2022-08-24T20:03:24.836Z,26.05
2022-08-24T20:05:51.389Z,25.70
2022-08-24T20:08:19.469Z,25.51
2022-08-24T20:10:45.930Z,26.26
2022-08-24T20:13:12.408Z,26.25
2022-08-24T20:15:38.946Z,25.11
2022-08-24T20:18:05.577Z,26.27
2022-08-24T20:20:32.855Z,26.20
2022-08-24T20:23:06.040Z,26.15
2022-08-24T20:25:39.230Z,26.09
2022-08-24T20:28:28.295Z,23.52
2022-08-24T20:30:54.993Z,25.96
2022-08-24T20:33:23.751Z,24.60
2022-08-24T20:35:50.760Z,23.96
2022-08-24T20:38:20.173Z,23.59
2022-08-24T20:40:47.819Z,25.00
2022-08-24T20:43:14.584Z,25.67
2022-08-24T20:45:41.627Z,25.49
2022-08-24T20:48:12.243Z,24.54
2022-08-24T20:50:43.191Z,25.56
2022-08-24T20:53:11.322Z,25.53
2022-08-24T20:55:39.799Z,25.51
2022-08-24T20:58:06.502Z,24.01
2022-08-24T21:00:33.632Z,24.87
2022-08-24T21:03:00.447Z,24.98
2022-08-24T21:05:26.928Z,24.68
2022-08-24T21:07:55.628Z,25.05
2022-08-24T21:10:26.519Z,24.77
2022-08-24T21:12:53.643Z,24.10
2022-08-24T21:15:21.366Z,24.23
2022-08-24T21:17:47.999Z,24.91
2022-08-24T21:20:16.490Z,24.81
2022-08-24T21:22:43.425Z,23.33
2022-08-24T21:25:10.560Z,24.00
2022-08-24T21:27:39.693Z,24.58
2022-08-24T21:30:08.723Z,24.47
2022-08-24T21:32:53.945Z,24.46
2022-08-24T21:35:20.682Z,24.41
2022-08-24T21:37:47.212Z,23.20
2022-08-24T21:40:14.013Z,22.81
2022-08-24T21:42:40.497Z,24.07
2022-08-24T21:45:07.463Z,23.28
2022-08-24T21:47:34.092Z,21.93
2022-08-24T21:50:00.619Z,24.06
2022-08-24T21:52:27.109Z,23.89
2022-08-24T21:54:54.584Z,20.59
2022-08-24T21:57:21.528Z,23.81
2022-08-24T21:59:50.708Z,23.43
2022-08-24T22:02:20.583Z,21.54
2022-08-24T22:04:47.886Z,23.72
2022-08-24T22:07:25.517Z,23.13
2022-08-24T22:09:52.071Z,23.55
2022-08-24T22:12:18.701Z,23.61
2022-08-24T22:14:45.367Z,23.71
2022-08-24T22:17:11.891Z,22.83
2022-08-24T22:19:38.396Z,23.37
2022-08-24T22:22:05.331Z,21.80
2022-08-24T22:24:32.374Z,22.53
2022-08-24T22:26:58.890Z,21.95
2022-08-24T22:29:25.591Z,22.94
2022-08-24T22:31:52.029Z,23.19
2022-08-24T22:34:19.679Z,22.89
2022-08-24T22:36:48.187Z,23.23
2022-08-24T22:39:14.744Z,23.34
2022-08-24T22:41:41.185Z,23.18
2022-08-24T22:44:20.788Z,22.82
2022-08-24T22:46:56.054Z,23.24
2022-08-24T22:49:26.499Z,22.09
2022-08-24T22:51:52.969Z,22.60
2022-08-24T22:54:21.302Z,23.20
2022-08-24T22:56:51.687Z,22.80
2022-08-24T22:59:28.377Z,21.72
2022-08-24T23:01:56.931Z,22.80
2022-08-24T23:04:26.831Z,22.96
2022-08-24T23:06:54.888Z,22.27
2022-08-24T23:09:21.909Z,22.99
2022-08-24T23:11:48.283Z,22.19
2022-08-24T23:14:15.500Z,20.35
2022-08-24T23:16:49.803Z,22.78
2022-08-24T23:19:36.815Z,20.86
2022-08-24T23:22:05.004Z,21.94
2022-08-24T23:24:31.813Z,22.49
2022-08-24T23:26:58.729Z,22.56
2022-08-24T23:29:25.611Z,21.10
2022-08-24T23:31:53.571Z,21.90
2022-08-24T23:34:21.499Z,22.46
2022-08-24T23:36:48.500Z,21.86
2022-08-24T23:39:14.972Z,20.65
2022-08-24T23:41:44.245Z,21.59
2022-08-24T23:44:18.633Z,22.47
2022-08-24T23:46:45.191Z,21.98
2022-08-24T23:49:13.369Z,22.35
2022-08-24T23:51:40.139Z,21.93
2022-08-24T23:54:08.409Z,21.66
2022-08-24T23:56:36.994Z,22.09
2022-08-24T23:59:09.455Z,21.46
